Latest Weather Observations for Newman Airport

IDW60801

Issued at 4:32 pm WST Wednesday 10 February 2016 (issued every 30 minutes, with the page automatically refreshed every 10 minutes)

About weather observations | Map of weather stations | Latest weather observations for WA | Other Formats
Station Details ID: 007176 Name: NEWMAN AERO Lat: -23.42 Lon: 119.80 Height: 524.0 m
Data from the previous 72 hours. | See also: Recent months at Newman Airport
Date/Time
WST
Temp
°C
App
Temp
°C
Dew
Point
Rel
Hum
%
Delta-T
°C
Wind Press
QNH
hPa
Press
MSL
hPa
Rain
since 9 am
mm
Dir
 
Spd
km/h
Gust
km/h
Spd
kts
Gust
kts
10/04:30pm 39.6 35.5 2.3 10 20.1 E 13 24 7 13 1011.7 1007.3 0.0
10/04:00pm 39.7 36.0 2.4 10 20.1 E 11 20 6 11 1011.6 1007.2 0.0
10/03:30pm 39.7 35.2 2.4 10 20.1 SE 15 24 8 13 1011.7 1007.3 0.0
10/03:00pm 39.9 35.5 2.5 10 20.2 E 15 24 8 13 1011.9 1007.5 0.0
10/02:30pm 39.2 33.9 2.0 10 19.9 E 19 28 10 15 1012.2 1007.8 0.0
10/02:00pm 39.2 35.1 2.0 10 19.9 ESE 13 24 7 13 1012.5 1008.2 0.0
10/01:30pm 39.5 35.0 2.2 10 20.0 ESE 15 24 8 13 1012.7 1008.4 0.0
10/01:00pm 39.8 35.0 2.5 10 20.1 SE 17 32 9 17 1012.9 1008.6 0.0
10/12:30pm 38.6 34.2 2.9 11 19.3 ESE 15 28 8 15 1013.5 1009.1 0.0
10/12:00pm 39.1 34.8 3.3 11 19.5 ESE 15 26 8 14 1013.7 1009.3 0.0
10/11:30am 39.5 33.9 3.6 11 19.7 ENE 22 32 12 17 1014.1 1009.8 0.0
10/11:00am 38.0 33.0 3.7 12 18.7 E 19 26 10 14 1014.5 1010.2 0.0
10/10:30am 37.1 32.0 4.1 13 18.0 E 20 33 11 18 1014.7 1010.4 0.0
10/10:00am 36.6 32.0 5.8 15 17.2 E 19 33 10 18 1015.1 1010.8 0.0
10/09:30am 35.6 30.9 5.0 15 16.8 E 19 30 10 16 1015.4 1011.0 0.0
10/09:00am 34.2 30.0 5.7 17 15.7 E 17 24 9 13 1015.5 1011.1 0.0
10/08:30am 32.8 29.0 7.6 21 14.2 E 17 24 9 13 1015.7 1011.3 0.0
10/08:00am 31.5 28.7 8.5 24 13.1 ESE 13 22 7 12 1015.5 1011.1 0.0
10/07:30am 28.9 27.8 10.6 32 10.6 E 7 13 4 7 1015.4 1011.0 0.0
10/07:00am 26.1 26.5 12.5 42 8.0 W 2 7 1 4 1015.2 1010.9 0.0
10/06:30am 23.7 24.9 13.8 53 5.9 CALM 0 6 0 3 1015.0 1010.7 0.0
10/06:00am 22.7 24.1 14.3 59 5.0 CALM 0 6 0 3 1014.7 1010.4 0.0
10/05:30am 22.5 22.1 13.0 55 5.6 SW 7 9 4 5 1014.3 1010.0 0.0
10/05:00am 22.3 22.4 14.4 61 4.7 SW 7 9 4 5 1013.9 1009.5 0.0
10/04:30am 22.4 22.4 14.3 60 4.9 SW 7 9 4 5 1013.7 1009.3 0.0
10/04:00am 22.6 23.0 14.7 61 4.8 SW 6 7 3 4 1013.6 1009.2 0.0
10/03:30am 23.1 24.5 14.4 58 5.2 CALM 0 0 0 0 1013.4 1009.0 0.0
10/03:00am 23.2 24.5 14.2 57 5.4 CALM 0 0 0 0 1013.1 1008.8 0.0
10/02:30am 23.8 25.2 14.5 56 5.6 CALM 0 0 0 0 1013.0 1008.7 0.0
10/02:00am 24.7 24.5 13.6 50 6.7 S 7 9 4 5 1013.0 1008.7 0.0
10/01:30am 25.0 26.4 14.5 52 6.4 CALM 0 4 0 2 1012.9 1008.6 0.0
10/01:00am 25.7 25.6 13.2 46 7.5 SW 6 7 3 4 1013.1 1008.8 0.0
10/12:30am 25.7 25.2 12.5 44 7.8 SSW 7 9 4 5 1013.5 1009.1 0.0
10/12:00am 26.1 25.2 12.5 42 8.1 SW 9 11 5 6 1013.6 1009.2 0.0
 
Date/Time
WST
Temp
°C
App
Temp
°C
Dew
Point
Rel
Hum
%
Delta-T
°C
Wind Press
QNH
hPa
Press
MSL
hPa
Rain
since 9 am
mm
Dir
 
Spd
km/h
Gust
km/h
Spd
kts
Gust
kts
09/11:30pm 26.2 25.7 13.7 46 7.5 SW 9 11 5 6 1013.8 1009.4 0.0
09/11:00pm 26.5 26.0 13.9 45 7.6 SW 9 11 5 6 1013.9 1009.5 0.0
09/10:30pm 28.2 29.2 13.3 40 9.0 CALM 0 0 0 0 1014.0 1009.6 0.0
09/10:00pm 28.3 29.6 14.2 42 8.6 CALM 0 0 0 0 1014.2 1009.9 0.0
09/09:30pm 29.7 30.6 13.0 35 10.1 CALM 0 0 0 0 1014.2 1009.9 0.0
09/09:00pm 30.0 29.5 12.0 33 10.7 SSE 6 7 3 4 1014.0 1009.6 0.0
09/08:30pm 31.4 30.2 10.2 27 12.4 SE 7 9 4 5 1013.9 1009.5 0.0
09/08:00pm 32.7 31.3 9.5 24 13.5 SE 7 11 4 6 1013.8 1009.4 0.0
09/07:30pm 34.1 32.3 8.0 20 14.9 ESE 7 9 4 5 1013.7 1009.3 0.0
09/07:00pm 35.7 33.5 6.0 16 16.6 ESE 7 11 4 6 1013.5 1009.1 0.0
09/06:30pm 37.0 34.4 6.1 15 17.4 SE 9 13 5 7 1013.1 1008.8 0.0
09/06:00pm 38.2 33.6 3.8 12 18.8 SE 17 22 9 12 1012.8 1008.5 0.0
09/05:30pm 38.7 34.7 3.0 11 19.3 SE 13 19 7 10 1012.7 1008.4 0.0
09/05:00pm 39.0 35.2 1.9 10 19.8 SE 11 20 6 11 1012.6 1008.3 0.0
09/04:30pm 39.4 34.2 2.2 10 20.0 ESE 19 28 10 15 1012.6 1008.3 0.0
09/04:00pm 39.2 34.7 2.0 10 19.9 E 15 30 8 16 1012.5 1008.2 0.0
09/03:30pm 38.8 34.6 1.7 10 19.7 E 13 26 7 14 1012.6 1008.3 0.0
09/03:00pm 39.4 35.1 3.5 11 19.6 SE 15 26 8 14 1012.8 1008.5 0.0
09/02:30pm 38.8 33.9 1.7 10 19.7 ENE 17 28 9 15 1013.1 1008.8 0.0
09/02:00pm 39.2 35.1 2.0 10 19.9 E 13 22 7 12 1013.5 1009.1 0.0
09/01:30pm 39.1 35.3 1.9 10 19.8 SE 11 22 6 12 1013.8 1009.4 0.0
09/01:00pm 38.3 34.0 1.3 10 19.5 E 13 24 7 13 1014.2 1009.9 0.0
09/12:30pm 38.6 33.6 1.6 10 19.6 SE 17 26 9 14 1014.4 1010.1 0.0
09/12:00pm 38.0 33.2 2.5 11 19.0 ESE 17 33 9 18 1014.9 1010.6 0.0
09/11:30am 38.2 33.0 3.8 12 18.8 E 20 32 11 17 1015.1 1010.8 0.0
09/11:00am 37.8 32.9 6.7 15 17.7 E 22 35 12 19 1015.5 1011.1 0.0
09/10:30am 36.5 31.2 6.6 16 16.9 E 24 32 13 17 1015.9 1011.6 0.0
09/10:00am 35.2 30.2 8.1 19 15.6 E 24 35 13 19 1016.2 1011.9 0.0
09/09:30am 34.0 27.4 7.9 20 14.9 E 32 41 17 22 1016.3 1012.0 0.0
09/09:00am 33.5 28.5 8.2 21 14.4 E 24 33 13 18 1016.3 1012.0 0.0
09/08:30am 31.8 27.7 8.7 24 13.2 E 20 33 11 18 1016.5 1012.2 0.0
09/08:00am 30.1 26.1 9.1 27 12.0 ESE 20 32 11 17 1016.5 1012.2 0.0
09/07:30am 28.9 24.0 8.6 28 11.4 ESE 24 35 13 19 1016.3 1012.0 0.0
09/07:00am 27.8 23.7 8.6 30 10.7 ESE 20 35 11 19 1016.2 1011.9 0.0
09/06:30am 27.0 22.9 8.0 30 10.5 ESE 19 30 10 16 1016.0 1011.7 0.0
09/06:00am 26.9 23.9 7.9 30 10.5 ESE 13 22 7 12 1015.5 1011.1 0.0
09/05:30am 26.3 23.7 7.8 31 10.1 ESE 11 17 6 9 1014.9 1010.6 0.0
09/05:00am 22.3 21.8 12.0 52 5.9 WNW 6 11 3 6 1014.7 1010.4 0.0
09/04:30am 23.6 22.7 10.6 44 7.4 SE 6 9 3 5 1014.3 1010.0 0.0
09/04:00am 24.6 22.6 10.1 40 8.2 SSE 11 13 6 7 1014.1 1009.8 0.0
09/03:30am 23.3 23.8 12.9 52 6.1 WSW 2 6 1 3 1014.0 1009.6 0.0
09/03:00am 23.6 23.4 12.9 51 6.3 S 6 9 3 5 1014.0 1009.6 0.0
09/02:30am 24.1 24.3 14.2 54 6.0 WSW 6 9 3 5 1013.7 1009.3 0.0
09/02:00am 24.2 23.3 11.5 45 7.3 SW 7 11 4 6 1013.7 1009.3 0.0
09/01:30am 24.4 25.3 13.9 52 6.3 N 2 9 1 5 1013.9 1009.5 0.0
09/01:00am 25.0 26.3 14.2 51 6.5 CALM 0 0 0 0 1014.2 1009.9 0.0
09/12:30am 26.4 26.1 12.8 43 8.1 ENE 6 9 3 5 1014.4 1010.1 0.0
09/12:00am 25.4 26.8 14.5 51 6.6 CALM 0 0 0 0 1014.7 1010.4 0.0
 
Date/Time
WST
Temp
°C
App
Temp
°C
Dew
Point
Rel
Hum
%
Delta-T
°C
Wind Press
QNH
hPa
Press
MSL
hPa
Rain
since 9 am
mm
Dir
 
Spd
km/h
Gust
km/h
Spd
kts
Gust
kts
08/11:30pm 26.6 27.4 13.7 45 7.8 E 2 6 1 3 1014.8 1010.5 0.0
08/11:00pm 28.4 28.2 13.1 39 9.2 E 6 9 3 5 1015.0 1010.7 0.0
08/10:30pm 27.8 28.0 11.8 37 9.4 SE 2 7 1 4 1015.1 1010.8 0.0
08/10:00pm 28.1 28.6 12.8 38 9.2 SE 2 6 1 3 1015.0 1010.7 0.0
08/09:30pm 29.0 27.8 11.6 34 10.3 SSE 9 13 5 7 1014.9 1010.6 0.0
08/09:00pm 30.2 29.9 10.2 29 11.6 SE 2 7 1 4 1014.6 1010.3 0.0
08/08:30pm 31.6 30.9 8.6 24 13.1 E 2 7 1 4 1014.3 1010.0 0.0
08/08:00pm 32.8 30.8 6.9 20 14.4 E 7 11 4 6 1014.0 1009.6 0.0
08/07:30pm 33.8 31.8 6.2 18 15.3 ESE 6 9 3 5 1013.8 1009.4 0.0
08/07:00pm 34.9 32.7 5.4 16 16.2 ESE 6 11 3 6 1013.5 1009.1 0.0
08/06:30pm 36.4 32.9 3.6 13 17.7 ESE 11 17 6 9 1013.1 1008.8 0.0
08/06:00pm 37.5 32.8 3.3 12 18.5 E 17 28 9 15 1012.8 1008.5 0.0
08/05:30pm 37.5 33.4 2.1 11 18.8 ESE 13 20 7 11 1012.5 1008.2 0.0
08/05:00pm 38.7 34.0 3.0 11 19.3 ESE 17 26 9 14 1012.3 1007.9 0.0
08/04:30pm 38.0 33.3 1.1 10 19.3 ESE 15 26 8 14 1012.3 1007.9 0.0
08/04:00pm 38.4 33.0 1.4 10 19.5 ESE 19 30 10 16 1012.3 1007.9 0.0
08/03:30pm 38.2 33.0 2.6 11 19.1 ESE 19 30 10 16 1012.4 1008.1 0.0
08/03:00pm 38.4 33.6 2.8 11 19.2 E 17 26 9 14 1012.5 1008.2 0.0
08/02:30pm 38.4 33.1 2.8 11 19.2 E 20 30 11 16 1012.9 1008.6 0.0
08/02:00pm 38.6 34.6 2.9 11 19.3 ENE 13 30 7 16 1013.2 1008.9 0.0
08/01:30pm 37.7 32.5 3.4 12 18.6 ENE 20 28 11 15 1013.5 1009.1 0.0
08/01:00pm 37.2 32.1 3.1 12 18.3 NE 19 28 10 15 1013.8 1009.4 0.0
08/12:30pm 38.1 33.9 3.8 12 18.7 ENE 15 30 8 16 1014.2 1009.9 0.0
08/12:00pm 36.9 32.0 5.0 14 17.6 ENE 20 30 11 16 1014.7 1010.4 0.0
08/11:30am 36.9 32.2 6.0 15 17.3 ENE 20 30 11 16 1015.1 1010.8 0.0
08/11:00am 36.1 30.5 5.4 15 17.0 E 24 37 13 20 1015.4 1011.0 0.0
08/10:30am 34.8 28.8 5.3 16 16.2 E 26 37 14 20 1015.8 1011.4 0.0
08/10:00am 34.0 27.7 5.5 17 15.6 E 28 41 15 22 1016.0 1011.7 0.0
08/09:30am 32.7 26.6 6.8 20 14.4 E 28 43 15 23 1016.0 1011.7 0.0
08/09:12am 32.1 25.2 6.3 20 14.2 E 32 50 17 27 1016.1 1011.8 0.0
08/09:00am 31.6 25.3 5.9 20 14.0 E 28 41 15 22 1016.1 1011.8 0.0
08/08:30am 30.7 25.5 7.2 23 13.0 E 24 35 13 19 1016.1 1011.8 0.0
08/08:00am 28.9 24.5 7.5 26 11.8 ESE 20 32 11 17 1016.1 1011.8 0.0
08/07:30am 27.9 23.1 7.2 27 11.3 E 22 32 12 17 1016.2 1011.9 0.0
08/07:00am 27.5 23.3 7.4 28 11.0 ESE 19 30 10 16 1016.0 1011.7 0.0
08/06:30am 26.5 23.3 7.0 29 10.5 ESE 13 24 7 13 1015.8 1011.4 0.0
08/06:00am 24.7 21.6 7.4 33 9.3 ESE 13 19 7 10 1015.6 1011.2 0.0
08/05:30am 23.4 22.1 9.8 42 7.6 NE 7 13 4 7 1015.4 1011.0 0.0
08/05:00am 23.4 21.0 8.7 39 8.0 SSE 11 13 6 7 1014.8 1010.5 0.0
08/04:30am 21.6 22.4 12.7 57 5.2 CALM 0 0 0 0 1014.7 1010.4 0.0
08/04:00am 21.5 22.3 12.6 57 5.2 CALM 0 6 0 3 1014.5 1010.2 0.0
08/03:30am 22.9 22.9 11.3 48 6.6 E 2 6 1 3 1014.4 1010.1 0.0
08/03:00am 23.3 21.9 11.0 46 7.0 SE 9 15 5 8 1014.2 1009.9 0.0
08/02:30am 22.4 22.1 12.6 54 5.7 SW 6 7 3 4 1014.1 1009.8 0.0
08/02:00am 22.9 22.6 12.8 53 5.9 SSW 6 7 3 4 1014.1 1009.8 0.0
08/01:30am 23.0 24.4 14.3 58 5.2 CALM 0 6 0 3 1014.4 1010.1 0.0
08/01:00am 23.8 24.9 13.4 52 6.2 CALM 0 0 0 0 1014.7 1010.4 0.0
08/12:30am 25.2 23.9 9.1 36 9.0 ESE 6 7 3 4 1015.1 1010.8 0.0
08/12:00am 26.4 24.8 7.9 31 10.1 ESE 6 9 3 5 1015.4 1011.0 0.0
 
Date/Time
WST
Temp
°C
App
Temp
°C
Dew
Point
Rel
Hum
%
Delta-T
°C
Wind Press
QNH
hPa
Press
MSL
hPa
Rain
since 9 am
mm
Dir
 
Spd
km/h
Gust
km/h
Spd
kts
Gust
kts
07/11:30pm 26.0 24.5 8.5 33 9.7 ESE 6 7 3 4 1015.4 1011.0 0.0
07/11:00pm 26.4 24.9 8.4 32 10.0 ESE 6 7 3 4 1015.4 1011.0 0.0
07/10:30pm 27.3 25.6 8.2 30 10.6 ESE 7 11 4 6 1015.2 1010.9 0.0
07/10:00pm 28.5 26.6 7.7 27 11.5 ESE 7 9 4 5 1015.1 1010.8 0.0
07/09:30pm 28.4 26.3 8.1 28 11.3 ESE 9 11 5 6 1014.9 1010.6 0.0
07/09:00pm 29.1 27.4 8.2 27 11.7 ESE 7 11 4 6 1014.7 1010.4 0.0
07/08:30pm 30.0 27.4 7.8 25 12.4 SE 11 13 6 7 1014.3 1010.0 0.0
07/08:00pm 31.2 28.4 7.0 22 13.4 ESE 11 13 6 7 1014.0 1009.6 0.0
07/07:30pm 32.3 29.8 6.5 20 14.3 ESE 9 11 5 6 1013.5 1009.1 0.0
07/07:00pm 33.6 30.8 5.2 17 15.5 SE 9 13 5 7 1013.0 1008.7 0.0
07/06:30pm 35.7 32.3 4.1 14 17.1 ESE 11 15 6 8 1012.5 1008.2 0.0
07/06:00pm 36.8 32.8 2.8 12 18.2 ESE 13 20 7 11 1012.1 1007.7 0.0
07/05:30pm 37.1 32.2 1.8 11 18.6 ENE 17 24 9 13 1011.7 1007.3 0.0
07/05:00pm 37.7 33.4 0.9 10 19.2 ESE 13 22 7 12 1011.5 1007.1 0.0

Other Formats:

Comma delimited format used in spreadsheet applications
http://www.bom.gov.au/fwo/IDW60801/IDW60801.94317.axf

JavaScript Object Notation format (JSON) in row-major order
http://www.bom.gov.au/fwo/IDW60801/IDW60801.94317.json